METAR Data
IDs: Format: Raw Decoded Include TAF

Data at: 0133 UTC 01 Mar 2021

PABV 010056Z AUTO 16006KT 9SM -SN FEW018 SCT035 OVC060 M04/M10 A2962 RMK AO2 SLP036 P0000 T10441100 FZRANO